createdAt,value
2022-12-06T00:01:20.498Z,17.05
2022-12-06T00:03:52.759Z,16.60
2022-12-06T00:06:22.875Z,16.73
2022-12-06T00:08:51.854Z,16.13
2022-12-06T00:11:28.450Z,17.65
2022-12-06T00:13:58.551Z,17.95
2022-12-06T00:16:27.419Z,17.50
2022-12-06T00:18:55.435Z,17.27
2022-12-06T00:21:31.448Z,17.23
2022-12-06T00:24:02.144Z,17.30
2022-12-06T00:26:30.814Z,16.40
2022-12-06T00:29:00.589Z,16.40
2022-12-06T00:31:30.546Z,16.45
2022-12-06T00:33:58.579Z,16.88
2022-12-06T00:36:31.079Z,16.85
2022-12-06T00:39:04.072Z,16.60
2022-12-06T00:41:31.635Z,16.65
2022-12-06T00:43:59.246Z,16.55
2022-12-06T00:46:29.632Z,17.00
2022-12-06T00:48:58.967Z,16.75
2022-12-06T00:51:29.711Z,17.45
2022-12-06T00:53:57.295Z,17.45
2022-12-06T00:56:25.582Z,17.38
2022-12-06T00:58:53.249Z,17.05
2022-12-06T01:01:26.600Z,17.25
2022-12-06T01:03:59.669Z,16.60
2022-12-06T01:06:30.666Z,16.73
2022-12-06T01:11:27.580Z,16.58
2022-12-06T01:13:56.212Z,16.88
2022-12-06T01:16:26.841Z,17.13
2022-12-06T01:18:57.821Z,17.08
2022-12-06T01:21:26.341Z,16.95
2022-12-06T01:23:56.877Z,17.25
2022-12-06T01:26:27.841Z,17.52
2022-12-06T01:31:23.038Z,16.88
2022-12-06T01:33:50.607Z,17.02
2022-12-06T01:36:24.014Z,16.73
2022-12-06T01:38:53.379Z,16.55
2022-12-06T01:41:22.309Z,17.20
2022-12-06T01:43:50.886Z,17.08
2022-12-06T01:46:27.598Z,16.42
2022-12-06T01:49:13.423Z,16.70
2022-12-06T01:51:45.436Z,16.77
2022-12-06T01:54:15.052Z,16.67
2022-12-06T01:56:43.279Z,17.50
2022-12-06T01:59:12.656Z,17.27
2022-12-06T02:01:40.962Z,17.05
2022-12-06T02:04:09.975Z,17.15
2022-12-06T02:06:39.113Z,17.23
2022-12-06T02:09:09.270Z,16.98
2022-12-06T02:11:37.799Z,16.40
2022-12-06T02:14:09.894Z,16.38
2022-12-06T02:17:09.515Z,16.20
2022-12-06T02:19:55.135Z,16.13
2022-12-06T02:23:00.417Z,16.27
2022-12-06T02:25:34.042Z,16.35
2022-12-06T02:28:38.544Z,16.48
2022-12-06T02:31:09.371Z,16.67
2022-12-06T02:33:44.231Z,16.45
2022-12-06T02:36:27.688Z,16.63
2022-12-06T02:39:09.296Z,17.15
2022-12-06T02:41:42.429Z,17.17
2022-12-06T02:44:19.121Z,16.67
2022-12-06T02:46:49.419Z,17.42
2022-12-06T02:49:18.071Z,16.40
2022-12-06T02:51:47.758Z,16.80
2022-12-06T02:54:17.443Z,17.13
2022-12-06T02:56:44.988Z,17.52
2022-12-06T02:59:12.520Z,17.00
2022-12-06T03:01:48.700Z,16.77
2022-12-06T03:04:34.254Z,16.73
2022-12-06T03:07:04.748Z,16.88
2022-12-06T03:09:51.302Z,16.90
2022-12-06T03:12:25.070Z,17.10
2022-12-06T03:15:03.506Z,16.85
2022-12-06T03:17:50.817Z,17.10
2022-12-06T03:20:27.431Z,17.67
2022-12-06T03:23:02.513Z,17.17
2022-12-06T03:25:33.446Z,16.73
2022-12-06T03:30:33.130Z,18.05
2022-12-06T03:35:33.193Z,16.45
2022-12-06T03:38:47.052Z,16.55
2022-12-06T03:41:17.746Z,16.75
2022-12-06T03:43:45.857Z,17.00
2022-12-06T03:46:20.464Z,16.55
2022-12-06T03:48:54.048Z,17.35
2022-12-06T03:51:33.757Z,17.20
2022-12-06T03:54:05.170Z,17.15
2022-12-06T03:56:36.936Z,16.63
2022-12-06T03:59:08.710Z,16.92
2022-12-06T04:01:36.467Z,17.70
2022-12-06T04:04:04.593Z,16.45
2022-12-06T04:06:32.293Z,17.40
2022-12-06T04:09:18.384Z,17.20
2022-12-06T04:11:46.270Z,17.67
2022-12-06T04:14:14.093Z,17.30
2022-12-06T04:17:00.377Z,16.88
2022-12-06T04:19:27.936Z,17.88
2022-12-06T04:22:13.883Z,18.15
2022-12-06T04:24:41.409Z,18.35
2022-12-06T04:27:29.580Z,18.50
2022-12-06T04:30:16.130Z,18.63
2022-12-06T04:33:02.320Z,18.33
2022-12-06T04:35:48.495Z,17.60
2022-12-06T04:38:34.786Z,17.70
2022-12-06T04:41:02.355Z,17.63
2022-12-06T04:43:44.819Z,17.67
2022-12-06T04:46:18.676Z,18.35
2022-12-06T04:48:46.404Z,19.10
2022-12-06T04:51:14.095Z,18.77
2022-12-06T04:53:41.985Z,18.20
2022-12-06T04:56:09.794Z,18.10
2022-12-06T04:58:37.408Z,18.90
2022-12-06T05:01:05.316Z,19.13
2022-12-06T05:03:33.245Z,18.98
2022-12-06T05:06:00.909Z,18.92
2022-12-06T05:08:28.948Z,19.05
2022-12-06T05:10:56.884Z,19.42
2022-12-06T05:13:24.509Z,19.40
2022-12-06T05:15:51.991Z,20.20
2022-12-06T05:18:19.807Z,18.90
2022-12-06T05:20:47.431Z,19.95
2022-12-06T05:23:15.498Z,19.67
2022-12-06T05:25:43.007Z,18.42
2022-12-06T05:28:10.839Z,18.52
2022-12-06T05:30:38.481Z,18.83
2022-12-06T05:33:06.018Z,18.92
2022-12-06T05:35:33.551Z,18.48
2022-12-06T05:38:01.218Z,19.30
2022-12-06T05:40:29.242Z,18.35
2022-12-06T06:12:49.375Z,20.42
2022-12-06T06:15:17.621Z,20.65
2022-12-06T06:17:45.272Z,19.95
2022-12-06T06:20:14.059Z,20.83
2022-12-06T06:22:42.649Z,20.77
2022-12-06T06:25:10.487Z,23.30
2022-12-06T06:27:38.951Z,22.15
2022-12-06T06:30:09.956Z,21.95
2022-12-06T06:35:06.319Z,20.90
2022-12-06T06:37:34.390Z,22.35
2022-12-06T06:40:03.317Z,21.73
2022-12-06T06:42:31.126Z,22.08
2022-12-06T06:44:58.769Z,21.90
2022-12-06T06:47:26.853Z,21.35
2022-12-06T06:49:54.516Z,22.23
2022-12-06T06:52:22.129Z,22.33
2022-12-06T06:54:49.748Z,22.00
2022-12-06T06:57:18.578Z,22.52
2022-12-06T06:59:46.361Z,21.95
2022-12-06T07:02:15.726Z,22.08
2022-12-06T07:04:44.884Z,21.27
2022-12-06T07:07:19.292Z,21.15
2022-12-06T07:09:48.519Z,21.20
2022-12-06T07:12:16.138Z,20.42
2022-12-06T07:14:43.777Z,21.67
2022-12-06T07:17:11.535Z,20.48
2022-12-06T07:19:39.234Z,20.55
2022-12-06T07:22:06.850Z,21.10
2022-12-06T07:24:39.863Z,21.23
2022-12-06T07:27:09.359Z,21.10
2022-12-06T07:29:36.977Z,21.23
2022-12-06T07:32:04.896Z,21.45
2022-12-06T07:34:33.498Z,20.58
2022-12-06T07:37:01.188Z,20.98
2022-12-06T07:39:28.737Z,21.02
2022-12-06T07:42:34.562Z,20.55
2022-12-06T07:45:02.987Z,21.83
2022-12-06T07:47:34.501Z,20.58
2022-12-06T07:50:03.798Z,19.93
2022-12-06T07:52:35.161Z,23.17
2022-12-06T07:55:04.173Z,23.40
2022-12-06T07:57:31.817Z,21.83
2022-12-06T07:59:59.790Z,22.35
2022-12-06T08:02:29.131Z,21.75
2022-12-06T08:04:57.787Z,21.80
2022-12-06T08:07:26.278Z,23.08
2022-12-06T08:09:54.262Z,23.00
2022-12-06T08:12:22.251Z,22.88
2022-12-06T08:14:49.918Z,22.60
2022-12-06T08:17:17.568Z,22.65
2022-12-06T08:19:47.072Z,22.67
2022-12-06T08:22:14.723Z,23.70
2022-12-06T08:24:42.358Z,23.52
2022-12-06T08:27:09.966Z,24.90
2022-12-06T08:29:37.664Z,24.98
2022-12-06T08:32:05.714Z,23.45
2022-12-06T08:34:34.921Z,24.58
2022-12-06T08:37:03.750Z,24.48
2022-12-06T08:39:31.663Z,22.60
2022-12-06T08:41:59.388Z,25.13
2022-12-06T08:44:28.689Z,23.40
2022-12-06T08:46:57.453Z,23.98
2022-12-06T08:49:26.367Z,25.38
2022-12-06T08:51:54.133Z,27.08
2022-12-06T08:54:24.033Z,23.48
2022-12-06T08:56:52.583Z,24.80
2022-12-06T08:59:21.075Z,24.20
2022-12-06T09:01:48.905Z,23.45
2022-12-06T09:04:18.045Z,25.15
2022-12-06T09:06:46.379Z,22.67
2022-12-06T09:09:15.981Z,23.70
2022-12-06T09:11:45.351Z,23.73
2022-12-06T09:14:20.981Z,21.88
2022-12-06T09:16:50.732Z,23.23
2022-12-06T09:19:19.684Z,22.48
2022-12-06T16:08:31.814Z,26.17
2022-12-06T16:11:14.820Z,28.20
2022-12-06T16:13:42.637Z,26.55
2022-12-06T16:16:11.113Z,26.60
2022-12-06T16:18:38.891Z,24.70
2022-12-06T16:21:06.722Z,27.25
2022-12-06T16:26:44.412Z,23.10
2022-12-06T16:29:25.893Z,24.67
2022-12-06T16:31:54.288Z,29.33
2022-12-06T16:34:22.010Z,32.38
2022-12-06T16:37:00.201Z,23.60
2022-12-06T16:39:29.798Z,23.65
2022-12-06T16:41:57.466Z,23.58
2022-12-06T16:44:25.581Z,23.40
2022-12-06T16:46:53.567Z,22.00
2022-12-06T16:52:16.131Z,25.77
2022-12-06T16:54:44.014Z,22.73
2022-12-06T16:57:12.876Z,24.15
2022-12-06T16:59:42.753Z,23.42
2022-12-06T17:02:31.286Z,28.53
2022-12-06T17:05:06.604Z,27.45
2022-12-06T17:07:36.152Z,25.33
2022-12-06T17:10:04.147Z,23.83
2022-12-06T17:12:31.760Z,28.30
2022-12-06T17:15:00.416Z,26.35
2022-12-06T17:17:29.610Z,25.05
2022-12-06T17:19:57.208Z,22.27
2022-12-06T17:22:25.128Z,20.20
2022-12-06T17:24:52.713Z,37.05
2022-12-06T17:27:20.382Z,26.70
2022-12-06T17:29:47.981Z,28.95
2022-12-06T17:32:16.257Z,29.33
2022-12-06T17:34:45.114Z,28.17
2022-12-06T17:37:13.015Z,26.95
2022-12-06T17:39:40.529Z,31.80
2022-12-06T17:42:26.851Z,20.88
2022-12-06T17:44:54.396Z,27.83
2022-12-06T17:47:21.953Z,21.17
2022-12-06T17:49:51.428Z,21.92
2022-12-06T17:52:19.517Z,26.23
2022-12-06T17:54:47.131Z,30.05
2022-12-06T17:57:18.487Z,34.25
2022-12-06T17:59:48.252Z,37.63
2022-12-06T18:02:23.434Z,31.83
2022-12-06T18:04:51.658Z,29.90
2022-12-06T18:07:19.223Z,23.50
2022-12-06T18:09:47.615Z,28.00
2022-12-06T18:12:17.028Z,27.98
2022-12-06T18:14:45.912Z,26.25
2022-12-06T18:17:13.660Z,25.48
2022-12-06T18:19:41.237Z,39.25
2022-12-06T18:22:09.122Z,21.35
2022-12-06T18:24:36.809Z,24.15
2022-12-06T18:27:06.293Z,20.30
2022-12-06T18:29:34.520Z,24.95
2022-12-06T18:32:02.375Z,28.52
2022-12-06T18:34:30.225Z,20.48
2022-12-06T18:36:57.930Z,30.95
2022-12-06T18:39:25.634Z,19.95
2022-12-06T18:41:55.281Z,33.97
2022-12-06T18:44:24.579Z,20.60
2022-12-06T18:46:52.837Z,33.67
2022-12-06T18:49:20.612Z,26.67
2022-12-06T18:51:48.386Z,34.72
2022-12-06T18:54:16.341Z,28.23
2022-12-06T18:56:44.247Z,25.08
2022-12-06T18:59:12.384Z,20.45
2022-12-06T19:01:41.274Z,25.08
2022-12-06T19:04:14.544Z,24.58
2022-12-06T19:06:43.739Z,22.33
2022-12-06T19:09:14.794Z,38.25
2022-12-06T19:16:47.172Z,27.85
2022-12-06T19:19:25.743Z,29.58
2022-12-06T19:21:55.558Z,28.05
2022-12-06T19:24:26.170Z,20.70
2022-12-06T19:26:55.507Z,28.95
2022-12-06T19:29:23.207Z,36.05
2022-12-06T19:31:51.489Z,22.73
2022-12-06T19:34:22.274Z,38.03
2022-12-06T19:36:51.568Z,29.45
2022-12-06T19:39:20.128Z,30.45
2022-12-06T19:42:06.850Z,28.58
2022-12-06T19:44:34.672Z,29.55
2022-12-06T19:47:02.352Z,25.52
2022-12-06T19:49:30.124Z,28.90
2022-12-06T19:51:57.935Z,23.90
2022-12-06T19:54:29.098Z,31.73
2022-12-06T19:56:58.303Z,27.70
2022-12-06T19:59:29.569Z,23.35
2022-12-06T20:02:00.038Z,21.25
2022-12-06T20:04:30.594Z,30.48
2022-12-06T20:06:58.806Z,27.50
2022-12-06T20:09:27.840Z,21.45
2022-12-06T20:12:03.240Z,30.50
2022-12-06T20:14:45.955Z,22.52
2022-12-06T20:17:20.019Z,27.52
2022-12-06T20:19:49.204Z,20.85
2022-12-06T20:22:18.604Z,22.80
2022-12-06T20:24:46.578Z,21.52
2022-12-06T20:27:14.575Z,30.17
2022-12-06T20:29:42.447Z,30.75
2022-12-06T20:32:10.546Z,23.88
2022-12-06T20:34:38.153Z,26.90
2022-12-06T20:37:06.329Z,32.38
2022-12-06T20:39:36.250Z,27.05
2022-12-06T20:42:06.272Z,28.17
2022-12-06T20:44:34.357Z,30.45
2022-12-06T20:47:02.219Z,36.03
2022-12-06T20:49:29.936Z,25.13
2022-12-06T20:51:59.768Z,23.17
2022-12-06T20:54:27.474Z,35.63
2022-12-06T20:56:55.027Z,21.88
2022-12-06T20:59:22.666Z,21.52
2022-12-06T21:01:50.379Z,37.78
2022-12-06T21:04:18.121Z,25.27
2022-12-06T21:06:45.677Z,27.58
2022-12-06T21:09:13.419Z,20.08
2022-12-06T21:11:41.057Z,25.20
2022-12-06T21:14:16.830Z,27.30
2022-12-06T21:16:44.347Z,34.85
